createdAt,value
2018-11-07T00:01:08.641Z,65.80
2018-11-07T00:03:36.950Z,65.80
2018-11-07T00:06:05.337Z,65.50
2018-11-07T00:08:33.875Z,65.30
2018-11-07T00:11:02.097Z,65.50
2018-11-07T00:13:30.479Z,65.50
2018-11-07T00:15:58.805Z,65.70
2018-11-07T00:18:27.119Z,65.90
2018-11-07T00:20:55.428Z,65.90
2018-11-07T00:23:23.768Z,66.00
2018-11-07T00:25:52.071Z,65.80
2018-11-07T00:28:20.363Z,65.80
2018-11-07T00:30:48.681Z,66.10
2018-11-07T00:33:17.013Z,65.70
2018-11-07T00:35:45.322Z,66.10
2018-11-07T00:38:13.689Z,66.10
2018-11-07T00:40:42.001Z,66.10
2018-11-07T00:43:10.341Z,66.30
2018-11-07T00:45:38.707Z,66.50
2018-11-07T00:48:07.025Z,66.20
2018-11-07T00:50:35.334Z,66.50
2018-11-07T00:53:03.673Z,66.60
2018-11-07T00:55:32.012Z,67.00
2018-11-07T00:58:00.365Z,67.30
2018-11-07T01:00:28.665Z,67.30
2018-11-07T01:02:56.965Z,67.40
2018-11-07T01:05:25.329Z,67.40
2018-11-07T01:07:53.642Z,67.60
2018-11-07T01:10:21.987Z,67.90
2018-11-07T01:12:50.331Z,68.30
2018-11-07T01:15:18.655Z,69.20
2018-11-07T01:17:46.975Z,68.70
2018-11-07T01:20:15.405Z,68.10
2018-11-07T01:22:44.186Z,68.00
2018-11-07T01:25:12.529Z,67.40
2018-11-07T01:27:40.849Z,67.40
2018-11-07T01:30:11.032Z,66.40
2018-11-07T01:32:39.581Z,66.30
2018-11-07T01:35:07.941Z,66.80
2018-11-07T01:37:36.288Z,66.20
2018-11-07T01:40:06.946Z,66.50
2018-11-07T01:42:35.308Z,66.60
2018-11-07T01:45:03.661Z,67.00
2018-11-07T01:47:32.007Z,67.20
2018-11-07T01:50:00.344Z,67.20
2018-11-07T01:52:28.682Z,66.80
2018-11-07T01:54:57.012Z,67.10
2018-11-07T01:57:25.327Z,67.40
2018-11-07T01:59:53.615Z,67.70
2018-11-07T02:02:21.922Z,67.40
2018-11-07T02:04:50.290Z,67.50
2018-11-07T02:07:18.612Z,67.60
2018-11-07T02:09:46.935Z,67.60
2018-11-07T02:12:15.305Z,67.80
2018-11-07T02:14:43.612Z,67.90
2018-11-07T02:17:11.924Z,67.90
2018-11-07T02:19:40.236Z,68.00
2018-11-07T02:22:08.551Z,68.00
2018-11-07T02:24:36.860Z,68.20
2018-11-07T02:27:05.437Z,68.10
2018-11-07T02:29:33.759Z,68.30
2018-11-07T02:32:02.131Z,68.70
2018-11-07T02:34:30.456Z,68.70
2018-11-07T02:36:58.878Z,68.80
2018-11-07T02:39:27.180Z,68.80
2018-11-07T02:41:55.577Z,67.90
2018-11-07T02:44:23.799Z,67.40
2018-11-07T02:46:52.127Z,67.60
2018-11-07T02:49:20.520Z,68.10
2018-11-07T02:51:48.828Z,68.50
2018-11-07T02:54:17.125Z,68.90
2018-11-07T02:56:45.435Z,69.10
2018-11-07T02:59:13.730Z,69.20
2018-11-07T03:01:42.028Z,69.20
2018-11-07T03:04:10.360Z,69.30
2018-11-07T03:06:38.702Z,69.30
2018-11-07T03:09:08.955Z,69.40
2018-11-07T03:11:37.294Z,69.40
2018-11-07T03:14:06.148Z,69.40
2018-11-07T03:16:34.464Z,69.50
2018-11-07T03:19:02.787Z,69.70
2018-11-07T03:21:31.100Z,69.50
2018-11-07T03:23:59.433Z,69.20
2018-11-07T03:26:27.759Z,69.40
2018-11-07T03:28:56.069Z,69.40
2018-11-07T03:31:24.486Z,69.60
2018-11-07T03:33:53.327Z,69.40
2018-11-07T03:36:21.673Z,69.60
2018-11-07T03:38:51.001Z,69.50
2018-11-07T03:41:19.317Z,69.30
2018-11-07T03:43:47.644Z,69.40
2018-11-07T03:46:16.064Z,69.60
2018-11-07T03:48:44.392Z,69.80
2018-11-07T03:51:12.716Z,69.90
2018-11-07T03:53:41.000Z,69.80
2018-11-07T03:56:09.345Z,69.90
2018-11-07T03:58:37.663Z,70.00
2018-11-07T04:01:05.974Z,69.80
2018-11-07T04:03:34.335Z,69.50
2018-11-07T04:06:02.704Z,69.50
2018-11-07T04:08:31.166Z,69.60
2018-11-07T04:10:59.492Z,69.40
2018-11-07T04:13:27.802Z,69.20
2018-11-07T04:15:56.136Z,69.20
2018-11-07T04:18:24.460Z,69.10
2018-11-07T04:20:52.763Z,69.00
2018-11-07T04:23:21.102Z,69.00
2018-11-07T04:25:49.431Z,69.00
2018-11-07T04:28:17.738Z,69.20
2018-11-07T04:30:46.772Z,69.30
2018-11-07T04:33:15.123Z,68.90
2018-11-07T04:35:43.436Z,68.40
2018-11-07T04:38:11.740Z,68.10
2018-11-07T04:40:40.059Z,67.20
2018-11-07T04:43:08.375Z,66.80
2018-11-07T04:45:36.683Z,67.10
2018-11-07T04:48:05.356Z,67.20
2018-11-07T04:50:33.656Z,67.70
2018-11-07T04:53:01.985Z,67.60
2018-11-07T04:55:30.327Z,67.70
2018-11-07T04:57:58.642Z,67.70
2018-11-07T05:00:26.952Z,67.20
2018-11-07T05:02:55.296Z,67.50
2018-11-07T05:05:23.735Z,68.50
2018-11-07T05:07:52.053Z,67.80
2018-11-07T05:10:20.365Z,68.00
2018-11-07T05:12:48.703Z,68.00
2018-11-07T05:15:17.013Z,67.90
2018-11-07T05:17:45.353Z,68.30
2018-11-07T05:20:13.680Z,67.70
2018-11-07T05:22:41.982Z,67.70
2018-11-07T05:25:11.112Z,67.40
2018-11-07T05:27:39.779Z,68.50
2018-11-07T05:30:09.069Z,69.90
2018-11-07T05:32:37.427Z,69.80
2018-11-07T05:35:06.429Z,69.30
2018-11-07T05:37:34.767Z,69.10
2018-11-07T05:40:03.142Z,68.60
2018-11-07T05:42:31.445Z,68.60
2018-11-07T05:44:59.769Z,68.60
2018-11-07T05:47:28.145Z,68.00
2018-11-07T05:49:56.447Z,67.90
2018-11-07T05:52:24.775Z,68.20
2018-11-07T05:54:53.107Z,68.30
2018-11-07T05:57:21.429Z,68.70
2018-11-07T05:59:49.803Z,69.20
2018-11-07T06:02:18.753Z,69.40
2018-11-07T06:04:47.107Z,70.00
2018-11-07T06:07:15.422Z,70.00
2018-11-07T06:09:43.743Z,70.00
2018-11-07T06:12:12.039Z,70.00
2018-11-07T06:14:40.375Z,69.90
2018-11-07T06:17:08.709Z,68.80
2018-11-07T06:19:37.067Z,68.60
2018-11-07T06:22:05.811Z,69.40
2018-11-07T06:24:34.165Z,69.90
2018-11-07T06:27:02.579Z,69.90
2018-11-07T06:29:30.934Z,69.80
2018-11-07T06:31:59.254Z,69.80
2018-11-07T06:34:27.607Z,69.80
2018-11-07T06:36:55.943Z,69.80
2018-11-07T06:39:24.293Z,69.80
2018-11-07T06:41:52.673Z,69.80
2018-11-07T06:44:21.061Z,69.80
2018-11-07T06:46:49.335Z,69.80
2018-11-07T06:49:17.653Z,69.80
2018-11-07T06:51:46.008Z,69.70
2018-11-07T06:54:14.697Z,69.80
2018-11-07T06:56:43.023Z,69.80
2018-11-07T06:59:11.381Z,69.80
2018-11-07T07:01:39.705Z,69.80
2018-11-07T07:04:08.192Z,69.80
2018-11-07T07:06:36.482Z,69.70
2018-11-07T07:09:07.055Z,69.80
2018-11-07T07:11:35.359Z,69.80
2018-11-07T07:14:03.681Z,70.10
2018-11-07T07:16:32.027Z,70.50
2018-11-07T07:19:00.368Z,70.80
2018-11-07T07:21:28.684Z,71.00
2018-11-07T07:23:57.013Z,71.40
2018-11-07T07:26:25.337Z,71.50
2018-11-07T07:28:53.665Z,72.10
2018-11-07T07:31:22.017Z,71.50
2018-11-07T07:33:50.409Z,71.40
2018-11-07T07:36:18.731Z,71.40
2018-11-07T07:38:47.057Z,71.20
2018-11-07T07:41:15.420Z,71.10
2018-11-07T07:43:43.754Z,71.00
2018-11-07T07:46:12.119Z,71.40
2018-11-07T07:48:40.590Z,70.70
2018-11-07T07:51:09.033Z,70.50
2018-11-07T07:53:37.371Z,70.10
2018-11-07T07:56:05.693Z,70.10
2018-11-07T07:58:34.021Z,70.20
2018-11-07T08:01:02.358Z,71.00
2018-11-07T08:03:30.703Z,72.40
2018-11-07T08:05:59.016Z,72.00
2018-11-07T08:08:27.411Z,71.70
2018-11-07T08:10:55.723Z,70.50
2018-11-07T08:13:24.128Z,70.60
2018-11-07T08:15:52.417Z,70.60
2018-11-07T08:18:20.737Z,70.70
2018-11-07T08:20:49.083Z,70.70
2018-11-07T08:23:17.417Z,70.80
2018-11-07T08:25:45.722Z,71.00
2018-11-07T08:28:14.062Z,71.10
2018-11-07T08:30:42.460Z,70.50
2018-11-07T08:33:10.810Z,70.20
2018-11-07T08:35:39.110Z,70.00
2018-11-07T08:38:07.459Z,69.70
2018-11-07T08:40:35.763Z,69.20
2018-11-07T08:43:04.095Z,68.70
2018-11-07T08:45:32.447Z,68.10
2018-11-07T08:48:00.774Z,67.10
2018-11-07T08:50:29.127Z,66.50
2018-11-07T08:52:57.494Z,66.00
2018-11-07T08:55:25.839Z,65.30
2018-11-07T08:57:54.164Z,64.70
2018-11-07T09:00:23.668Z,64.50
2018-11-07T09:02:52.076Z,63.40
2018-11-07T09:05:21.167Z,63.50
2018-11-07T09:07:49.715Z,63.20
2018-11-07T09:10:21.353Z,62.20
2018-11-07T09:12:49.741Z,61.00
2018-11-07T09:15:19.336Z,60.90
2018-11-07T09:17:47.699Z,60.50
2018-11-07T09:20:18.474Z,60.40
2018-11-07T09:22:46.803Z,60.00
2018-11-07T09:25:15.855Z,60.30
2018-11-07T09:27:44.936Z,59.20
2018-11-07T09:30:15.710Z,58.20
2018-11-07T09:32:44.168Z,57.60
2018-11-07T09:35:12.979Z,57.10
2018-11-07T09:37:41.330Z,56.90
2018-11-07T09:40:11.983Z,56.70
2018-11-07T09:42:41.236Z,56.60
2018-11-07T09:45:11.471Z,57.60
2018-11-07T09:47:40.344Z,54.60
2018-11-07T09:50:09.380Z,54.30
2018-11-07T09:52:38.232Z,53.20
2018-11-07T09:55:08.111Z,53.10
2018-11-07T09:57:36.563Z,52.90
2018-11-07T10:00:07.250Z,51.20
2018-11-07T10:02:36.446Z,51.00
2018-11-07T10:05:05.384Z,50.40
2018-11-07T10:07:33.726Z,50.50
2018-11-07T10:10:02.090Z,49.20
2018-11-07T10:12:30.472Z,46.00
2018-11-07T10:14:58.941Z,46.60
2018-11-07T10:17:27.376Z,46.20
2018-11-07T10:19:55.731Z,46.50
2018-11-07T10:22:24.100Z,47.50
2018-11-07T10:24:52.462Z,47.80
2018-11-07T10:27:21.185Z,45.90
2018-11-07T10:29:49.560Z,46.50
2018-11-07T10:32:17.673Z,47.10
2018-11-07T10:34:46.178Z,46.50
2018-11-07T10:37:14.507Z,46.20
2018-11-07T10:39:42.939Z,46.80
2018-11-07T10:42:11.238Z,46.30
2018-11-07T10:44:40.305Z,43.60
2018-11-07T10:47:08.704Z,42.70
2018-11-07T10:49:37.136Z,43.40
2018-11-07T10:52:06.322Z,44.00
2018-11-07T10:54:34.776Z,43.40
2018-11-07T10:57:03.220Z,42.80
2018-11-07T10:59:31.731Z,40.70
2018-11-07T11:02:05.231Z,42.60
2018-11-07T11:04:33.600Z,39.40
2018-11-07T11:07:01.968Z,39.00
2018-11-07T11:09:30.374Z,38.30
2018-11-07T11:11:58.759Z,39.00
2018-11-07T11:14:27.123Z,38.80
2018-11-07T11:16:55.593Z,38.90
2018-11-07T11:19:23.828Z,40.10
2018-11-07T11:21:52.180Z,38.80
2018-11-07T11:24:20.539Z,39.00
2018-11-07T11:26:48.913Z,39.40
2018-11-07T11:29:17.250Z,40.10
2018-11-07T11:31:45.626Z,39.90
2018-11-07T11:34:14.108Z,37.50
2018-11-07T11:36:42.322Z,37.10
2018-11-07T11:39:11.938Z,38.50
2018-11-07T11:41:40.864Z,38.60
2018-11-07T11:44:09.207Z,37.40
2018-11-07T11:46:37.587Z,38.50
2018-11-07T11:49:06.167Z,38.30
2018-11-07T11:51:34.858Z,38.50
2018-11-07T11:54:03.237Z,37.50
2018-11-07T11:56:31.602Z,37.60
2018-11-07T11:59:00.128Z,37.60
2018-11-07T12:01:28.353Z,36.80
2018-11-07T12:03:56.715Z,35.90
2018-11-07T12:06:25.098Z,35.30
2018-11-07T12:08:53.441Z,35.70
2018-11-07T12:11:21.861Z,36.10
2018-11-07T12:13:50.236Z,34.50
2018-11-07T12:16:18.574Z,34.40
2018-11-07T12:18:46.977Z,34.50
2018-11-07T12:21:15.447Z,35.30
2018-11-07T12:23:43.783Z,35.20
2018-11-07T12:26:12.183Z,36.20
2018-11-07T12:28:40.555Z,35.50
2018-11-07T12:33:43.530Z,36.30
2018-11-07T12:36:11.865Z,35.90
2018-11-07T12:38:40.240Z,36.40
2018-11-07T12:41:08.599Z,36.60
2018-11-07T12:43:36.919Z,36.20
2018-11-07T12:46:05.329Z,36.80
2018-11-07T12:48:33.731Z,37.60
2018-11-07T12:51:02.097Z,36.70
2018-11-07T12:53:30.411Z,37.50
2018-11-07T12:55:58.739Z,37.50
2018-11-07T12:58:27.141Z,37.40
2018-11-07T13:00:55.472Z,37.40
2018-11-07T13:03:23.844Z,38.10
2018-11-07T13:05:52.201Z,38.60
2018-11-07T13:08:20.599Z,38.90
2018-11-07T13:10:48.961Z,39.10
2018-11-07T13:13:17.329Z,38.70
2018-11-07T13:15:45.682Z,38.50
2018-11-07T13:18:14.040Z,38.70
2018-11-07T13:20:42.371Z,38.30
2018-11-07T13:23:10.761Z,38.70
2018-11-07T13:25:39.149Z,39.00
2018-11-07T13:28:07.520Z,38.60
2018-11-07T13:30:35.908Z,37.60
2018-11-07T13:33:04.565Z,37.60
2018-11-07T13:35:32.933Z,38.00
2018-11-07T13:38:01.449Z,37.50
2018-11-07T13:40:29.716Z,38.00
2018-11-07T13:42:58.079Z,37.40
2018-11-07T13:45:26.433Z,37.40
2018-11-07T13:47:55.352Z,33.80
2018-11-07T13:50:23.725Z,30.90
2018-11-07T13:52:52.228Z,31.50
2018-11-07T13:55:20.550Z,30.80
2018-11-07T13:57:48.926Z,30.90
2018-11-07T14:00:18.598Z,31.00
2018-11-07T14:02:47.642Z,31.10
2018-11-07T14:05:16.095Z,31.20
2018-11-07T14:07:44.437Z,31.10
2018-11-07T14:10:20.001Z,31.30
2018-11-07T14:12:48.499Z,31.80
2018-11-07T14:15:16.963Z,31.80
2018-11-07T14:17:45.608Z,31.80
2018-11-07T14:20:14.025Z,32.30
2018-11-07T14:22:42.479Z,32.50
2018-11-07T14:25:11.551Z,33.20
2018-11-07T14:27:40.224Z,33.80
2018-11-07T14:30:11.897Z,34.60
2018-11-07T14:32:44.769Z,35.50
2018-11-07T14:35:13.364Z,36.40
2018-11-07T14:37:41.817Z,36.40
2018-11-07T14:40:10.431Z,36.30
2018-11-07T14:42:39.054Z,36.30
2018-11-07T14:45:08.526Z,36.20
2018-11-07T14:47:36.952Z,37.00
2018-11-07T14:50:06.781Z,38.30
2018-11-07T14:52:35.167Z,38.20
2018-11-07T14:55:03.598Z,38.20
2018-11-07T14:57:32.289Z,38.30
2018-11-07T15:00:00.625Z,38.20
2018-11-07T15:02:28.983Z,38.40
2018-11-07T15:04:57.333Z,38.20
2018-11-07T15:07:25.693Z,38.80
2018-11-07T15:09:54.183Z,39.20
2018-11-07T15:12:22.556Z,39.40
2018-11-07T15:14:51.047Z,39.00
2018-11-07T15:17:19.408Z,39.10
2018-11-07T15:19:47.764Z,39.10
2018-11-07T15:22:16.101Z,39.30
2018-11-07T15:24:44.477Z,39.50
2018-11-07T15:27:12.861Z,39.40
2018-11-07T15:29:41.212Z,39.40
2018-11-07T15:32:09.592Z,40.30
2018-11-07T15:34:37.970Z,40.60
2018-11-07T15:37:06.793Z,40.40
2018-11-07T15:39:35.147Z,39.90
2018-11-07T15:42:03.543Z,40.00
2018-11-07T15:44:31.999Z,40.50
2018-11-07T15:47:00.373Z,40.20
2018-11-07T15:49:28.744Z,40.30
2018-11-07T15:51:57.156Z,40.60
2018-11-07T15:54:25.484Z,40.60
2018-11-07T15:56:53.847Z,40.80
2018-11-07T15:59:22.222Z,41.20
2018-11-07T16:01:50.578Z,40.80
2018-11-07T16:04:18.945Z,40.90
2018-11-07T16:06:47.328Z,41.00
2018-11-07T16:09:15.701Z,41.20
2018-11-07T16:11:44.032Z,41.50
2018-11-07T16:14:12.434Z,41.80
2018-11-07T16:16:40.777Z,42.00
2018-11-07T16:19:09.251Z,42.60
2018-11-07T16:21:37.623Z,45.50
2018-11-07T16:24:06.449Z,46.40
2018-11-07T16:26:41.325Z,47.60
2018-11-07T16:29:09.697Z,48.30
2018-11-07T16:31:38.198Z,49.00
2018-11-07T16:34:06.545Z,50.10
2018-11-07T16:36:34.933Z,50.80
2018-11-07T16:39:05.215Z,51.90
2018-11-07T16:41:33.658Z,52.20
2018-11-07T16:44:01.978Z,52.60
2018-11-07T16:46:30.402Z,52.80
2018-11-07T16:48:58.756Z,53.50
2018-11-07T16:51:27.108Z,54.00
2018-11-07T16:53:55.500Z,54.90
2018-11-07T16:56:23.846Z,54.90
2018-11-07T16:58:52.273Z,56.30
2018-11-07T17:01:20.622Z,57.40
2018-11-07T17:03:48.977Z,58.60
2018-11-07T17:06:17.353Z,59.20
2018-11-07T17:08:45.717Z,59.70
2018-11-07T17:11:14.101Z,60.10
2018-11-07T17:13:42.471Z,61.00
2018-11-07T17:16:10.806Z,61.50
2018-11-07T17:18:39.156Z,63.00
2018-11-07T17:21:07.828Z,63.50
2018-11-07T17:23:36.190Z,63.70
2018-11-07T17:26:04.533Z,64.00
2018-11-07T17:28:32.899Z,64.10
2018-11-07T17:31:01.266Z,65.20
2018-11-07T17:33:29.653Z,66.20
2018-11-07T17:35:58.062Z,67.40
2018-11-07T17:38:26.398Z,67.60
2018-11-07T17:40:54.785Z,68.00
2018-11-07T17:43:23.159Z,68.50
2018-11-07T17:45:51.572Z,68.40
2018-11-07T17:48:20.034Z,69.30
2018-11-07T17:50:48.340Z,69.70
2018-11-07T17:53:16.733Z,70.10
2018-11-07T17:55:45.090Z,70.50
2018-11-07T17:58:13.504Z,71.20
2018-11-07T18:00:41.861Z,70.90
2018-11-07T18:03:10.244Z,70.70
2018-11-07T18:05:38.648Z,71.70
2018-11-07T18:08:07.000Z,71.70
2018-11-07T18:10:35.399Z,72.50
2018-11-07T18:13:03.761Z,72.90
2018-11-07T18:15:32.201Z,72.90
2018-11-07T18:18:00.594Z,72.90
2018-11-07T18:20:29.083Z,72.90
2018-11-07T18:22:57.497Z,72.90
2018-11-07T18:25:25.873Z,73.20
2018-11-07T18:27:54.277Z,73.80
2018-11-07T18:30:22.648Z,73.90
2018-11-07T18:32:50.999Z,74.10
2018-11-07T18:35:20.153Z,74.10
2018-11-07T18:37:48.463Z,74.20
2018-11-07T18:40:18.135Z,74.30
2018-11-07T18:42:46.510Z,74.40
2018-11-07T18:45:15.236Z,74.30
2018-11-07T18:47:45.021Z,74.20
2018-11-07T18:50:14.868Z,74.30
2018-11-07T18:52:43.485Z,74.40
2018-11-07T18:55:13.039Z,74.40
2018-11-07T18:57:42.196Z,74.40
2018-11-07T19:00:12.425Z,74.70
2018-11-07T19:02:41.281Z,74.60
2018-11-07T19:05:10.107Z,74.70
2018-11-07T19:07:38.580Z,74.80
2018-11-07T19:10:09.236Z,74.60
2018-11-07T19:12:37.607Z,74.80
2018-11-07T19:15:07.825Z,75.00
2018-11-07T19:17:36.189Z,75.40
2018-11-07T19:20:04.876Z,75.50
2018-11-07T19:22:33.245Z,75.70
2018-11-07T19:25:01.588Z,75.90
2018-11-07T19:27:30.129Z,75.90
2018-11-07T19:29:58.562Z,76.00
2018-11-07T19:32:26.911Z,76.00
2018-11-07T19:34:55.256Z,76.10
2018-11-07T19:37:23.642Z,76.10
2018-11-07T19:39:52.019Z,76.00
2018-11-07T19:42:20.519Z,76.20
2018-11-07T19:44:48.913Z,76.10
2018-11-07T19:47:17.314Z,76.40
2018-11-07T19:49:45.697Z,76.30
2018-11-07T19:52:14.073Z,76.40
2018-11-07T19:54:42.439Z,76.60
2018-11-07T19:57:10.805Z,76.40
2018-11-07T19:59:39.174Z,76.40
2018-11-07T20:02:07.576Z,76.50
2018-11-07T20:04:36.182Z,76.70
2018-11-07T20:07:04.647Z,76.70
2018-11-07T20:09:33.061Z,76.80
2018-11-07T20:12:01.522Z,76.80
2018-11-07T20:14:29.912Z,76.70
2018-11-07T20:16:58.366Z,76.80
2018-11-07T20:19:26.758Z,76.90
2018-11-07T20:21:55.179Z,77.50
2018-11-07T20:24:23.554Z,76.90
2018-11-07T20:26:51.971Z,76.90
2018-11-07T20:29:20.444Z,76.80
2018-11-07T20:31:48.837Z,76.60
2018-11-07T20:34:17.216Z,76.00
2018-11-07T20:36:45.580Z,75.70
2018-11-07T20:39:14.232Z,75.30
2018-11-07T20:41:43.033Z,75.50
2018-11-07T20:44:12.080Z,75.70
2018-11-07T20:46:40.490Z,75.90
2018-11-07T20:49:08.847Z,76.00
2018-11-07T20:51:37.277Z,76.10
2018-11-07T20:54:05.633Z,76.10
2018-11-07T20:56:34.005Z,76.10
2018-11-07T20:59:02.378Z,76.20
2018-11-07T21:01:30.764Z,76.20
2018-11-07T21:03:59.167Z,76.10
2018-11-07T21:06:27.515Z,76.20
2018-11-07T21:08:55.940Z,76.40
2018-11-07T21:11:24.307Z,76.70
2018-11-07T21:13:52.681Z,76.70
2018-11-07T21:16:21.351Z,76.80
2018-11-07T21:18:50.612Z,76.90
2018-11-07T21:21:18.954Z,76.90
2018-11-07T21:23:47.868Z,76.70
2018-11-07T21:26:16.251Z,76.90
2018-11-07T21:28:45.948Z,77.20
2018-11-07T21:31:14.359Z,77.60
2018-11-07T21:33:42.669Z,78.00
2018-11-07T21:36:11.019Z,77.90
2018-11-07T21:38:39.635Z,78.00
2018-11-07T21:41:08.026Z,78.30
2018-11-07T21:43:36.545Z,78.90
2018-11-07T21:46:04.896Z,78.30
2018-11-07T21:48:33.269Z,78.40
2018-11-07T21:51:01.621Z,78.40
2018-11-07T21:53:29.977Z,78.30
2018-11-07T21:55:58.342Z,78.20
2018-11-07T21:58:26.696Z,78.10
2018-11-07T22:00:55.058Z,78.10
2018-11-07T22:03:23.411Z,78.20
2018-11-07T22:05:51.787Z,78.00
2018-11-07T22:08:20.182Z,78.00
2018-11-07T22:10:48.503Z,78.00
2018-11-07T22:13:17.010Z,77.90
2018-11-07T22:15:45.233Z,77.80
2018-11-07T22:18:13.641Z,77.70
2018-11-07T22:20:41.988Z,77.80
2018-11-07T22:23:10.317Z,78.00
2018-11-07T22:25:38.670Z,78.00
2018-11-07T22:28:06.995Z,78.00
2018-11-07T22:30:35.346Z,78.10
2018-11-07T22:33:03.726Z,78.20
2018-11-07T22:35:32.088Z,78.10
2018-11-07T22:38:00.438Z,78.20
2018-11-07T22:40:28.798Z,78.20
2018-11-07T22:42:57.162Z,78.30
2018-11-07T22:45:25.535Z,78.10
2018-11-07T22:47:53.880Z,78.20
2018-11-07T22:50:22.257Z,78.20
2018-11-07T22:52:50.606Z,78.20
2018-11-07T22:55:18.975Z,78.20
2018-11-07T22:57:47.348Z,78.20
2018-11-07T23:00:22.033Z,78.10
2018-11-07T23:02:51.794Z,78.70
2018-11-07T23:05:20.154Z,77.90
2018-11-07T23:07:48.951Z,77.60
2018-11-07T23:10:17.343Z,77.60
2018-11-07T23:12:45.682Z,77.50
2018-11-07T23:15:19.272Z,77.40
2018-11-07T23:17:47.617Z,78.20
2018-11-07T23:20:15.985Z,77.50
2018-11-07T23:22:44.365Z,77.50
2018-11-07T23:25:12.768Z,77.50
2018-11-07T23:27:41.202Z,77.40
2018-11-07T23:30:09.853Z,77.80
2018-11-07T23:32:38.204Z,78.10
2018-11-07T23:35:06.757Z,78.40
2018-11-07T23:37:35.118Z,78.20
2018-11-07T23:40:03.513Z,78.30
2018-11-07T23:42:32.080Z,78.60
2018-11-07T23:45:00.437Z,78.70
2018-11-07T23:47:28.865Z,78.70
2018-11-07T23:49:57.162Z,78.90
2018-11-07T23:52:30.800Z,78.90
2018-11-07T23:54:59.180Z,78.80
2018-11-07T23:57:27.551Z,78.50
2018-11-07T23:59:55.848Z,78.10
